Kezdőlap
METAR-TAF:

METAR-TAF

Repülőterek :

Funafuti, Tuvalu

földrajzi szélesség: 08-31S, földrajzi hosszúság: 179-13E, magasság: 1 m

Jelenlegi meteorológiai megfigyelések

A jelentés 9 perccel ezelõtt készült, 08:00 UTC
Északi szél 5 kt
Hőmérséklet 28°C
Páratartalom 79%
Légköri nyomás 1005 hPa
Látótávolság 10 km, vagy több
Kevés felhő 2000 lábon
Szakadozott felhőzet 31000 lábon

METAR: NGFU 230800Z 36005KT 9999 FEW020 BKN310 28/24 Q1005

Idő: 20:09 (08:09 UTC)

Előrejelzés

A jelentés 2 órával és 44 perccel ezelõtt készült, 05:25 UTC
Az előrejelzés 23-én 06 óra UTC és 24-én 06 óra UTC között érvényes
Északi szél 7 kt
Látótávolság 10 km, vagy több
Szórványos felhőzet 1900 lábon
Valószínűség 30% :
23-én 12 óra UTC és 23-én 18 óra UTC között ideiglenes
Látótávolság: 5000 m
Kevés felhő 1800 lábon, Cumulonimbus.
zivatar, esõ

TAF: NGFU 230525Z 2306/2406 01007KT 9999 SCT019 PROB30 TEMPO 2312/2318 5000 TSRA FEW018CB

Meteorológiai megfigyelések és előrejelzések több, mint 4000 repülőtéren (METAR és TAF jelentéseket).

A térképen piros és sárga pontok jelzik az elérhető meteorológiai állomásokat.

Mozgassa az egeret a pont fölött, hogy megjelenjen az állomás neve.

Azután kattintson az időjárási megfigyelések és előrejelzések megtekintéséhez.

A térkép megváltoztatása: kattintson a fekete keresztel jelölt zöld gombra ráközelítéshez, a vonallal jelölt zöld gombra távolításhoz, vagy a zöld nyilakra a szomszédos térképek eléréséhez.


METAR-TAF: